Time;durP1;ratioP1;P1;durP2;ratioP2;P2;SDS_P1;SDS_P2;PMS_P1;PMS_P2;Temp;Humidity;BMP_temperature;BMP_pressure;BME280_temperature;BME280_humidity;BME280_pressure;Samples;Min_cycle;Max_cycle;Signal;HPM_P1;HPM_P2
2021/05/07 04:47:48;;;;;;;25.25;13.65;;;;;;;;;;5055305;28;20422;-80
2021/05/07 04:50:14;;;;;;;23.77;14.43;;;;;;;;;;5071770;28;20037;-79
2021/05/07 04:52:40;;;;;;;12.55;7.10;;;;;;;;;;5054671;28;20033;-80
2021/05/07 04:55:06;;;;;;;9.40;7.05;;;;;;;;;;5062829;28;20025;-80
2021/05/07 04:57:32;;;;;;;11.25;6.20;;;;;;;;;;5046691;28;20077;-79
2021/05/07 04:59:57;;;;;;;11.10;6.88;;;;;;;;;;5042568;28;20024;-80
2021/05/07 05:02:24;;;;;;;13.25;9.13;;;;;;;;;;5045380;28;20063;-80
2021/05/07 05:04:49;;;;;;;15.50;10.65;;;;;;;;;;5030644;28;20358;-80
2021/05/07 05:07:15;;;;;;;10.80;7.00;;;;;;;;;;5029448;28;20080;-79
2021/05/07 05:09:41;;;;;;;10.20;7.72;;;;;;;;;;5031688;28;20036;-80
2021/05/07 05:12:07;;;;;;;10.50;6.93;;;;;;;;;;5030684;28;20020;-80
2021/05/07 05:14:33;;;;;;;8.20;6.63;;;;;;;;;;5030771;28;20041;-79
2021/05/07 05:16:58;;;;;;;17.30;11.52;;;;;;;;;;5030860;28;20048;-79
2021/05/07 05:19:24;;;;;;;23.40;12.30;;;;;;;;;;5031122;28;20032;-79
2021/05/07 05:21:50;;;;;;;17.77;10.48;;;;;;;;;;5030271;28;20022;-80
2021/05/07 05:24:15;;;;;;;30.13;17.10;;;;;;;;;;5030709;28;20021;-80
2021/05/07 05:29:00;;;;;;;25.83;14.82;;;;;;;;;;5085800;27;20356;-80
2021/05/07 05:31:26;;;;;;;18.42;10.73;;;;;;;;;;5072073;28;20043;-80
2021/05/07 05:33:51;;;;;;;15.98;9.43;;;;;;;;;;5064663;28;20104;-79
2021/05/07 05:36:17;;;;;;;10.20;7.03;;;;;;;;;;5070302;28;20024;-80
2021/05/07 05:38:43;;;;;;;9.40;5.80;;;;;;;;;;5071352;28;20028;-80
2021/05/07 05:41:09;;;;;;;7.63;5.00;;;;;;;;;;5071110;28;20107;-80
2021/05/07 05:43:35;;;;;;;7.93;4.70;;;;;;;;;;5071200;28;20029;-80
2021/05/07 05:46:00;;;;;;;8.35;5.10;;;;;;;;;;5069831;28;20545;-80
2021/05/07 05:48:26;;;;;;;8.23;5.05;;;;;;;;;;5071804;28;20107;-80
2021/05/07 05:50:53;;;;;;;7.03;4.78;;;;;;;;;;5076880;28;20020;-80
2021/05/07 05:53:19;;;;;;;10.07;6.95;;;;;;;;;;5074142;28;20040;-80
2021/05/07 05:55:44;;;;;;;11.20;5.18;;;;;;;;;;5071372;28;20048;-80
2021/05/07 05:58:11;;;;;;;7.18;4.70;;;;;;;;;;5075605;28;20074;-80
2021/05/07 06:00:37;;;;;;;10.45;5.72;;;;;;;;;;5075199;28;20024;-80
2021/05/07 06:03:03;;;;;;;8.32;4.80;;;;;;;;;;5073860;28;20020;-80
2021/05/07 06:05:28;;;;;;;9.23;5.63;;;;;;;;;;5070401;28;20821;-80
2021/05/07 06:07:54;;;;;;;7.53;4.95;;;;;;;;;;5072218;28;20116;-80
2021/05/07 06:10:21;;;;;;;7.63;5.10;;;;;;;;;;5070254;28;20124;-80
2021/05/07 06:12:47;;;;;;;7.88;5.65;;;;;;;;;;5072518;28;20017;-80
2021/05/07 06:15:14;;;;;;;8.23;4.60;;;;;;;;;;5071650;28;20024;-81
2021/05/07 06:17:40;;;;;;;7.93;5.00;;;;;;;;;;5075392;28;20036;-80
2021/05/07 06:20:06;;;;;;;7.60;5.38;;;;;;;;;;5074248;28;20033;-79
2021/05/07 06:22:32;;;;;;;10.15;5.55;;;;;;;;;;5068062;28;20029;-80
2021/05/07 06:24:58;;;;;;;8.05;5.40;;;;;;;;;;5082363;28;20073;-77
2021/05/07 06:27:24;;;;;;;9.25;5.18;;;;;;;;;;5077393;28;20035;-81
2021/05/07 06:32:08;;;;;;;10.52;6.75;;;;;;;;;;5104160;27;20759;-80
2021/05/07 06:34:33;;;;;;;7.72;6.05;;;;;;;;;;5096196;28;20071;-80
2021/05/07 06:37:00;;;;;;;8.27;5.47;;;;;;;;;;5099811;28;20099;-79
2021/05/07 06:39:29;;;;;;;8.95;5.63;;;;;;;;;;5090426;28;20106;-80
2021/05/07 06:41:55;;;;;;;11.38;6.82;;;;;;;;;;5105770;28;20023;-80
2021/05/07 06:44:20;;;;;;;15.05;6.18;;;;;;;;;;5105542;28;20046;-80
2021/05/07 06:50:18;;;;;;;10.65;6.65;;;;;;;;;;5078895;28;20390;-79
2021/05/07 06:58:23;;;;;;;10.32;5.25;;;;;;;;;;5111188;27;20450;-77
2021/05/07 07:00:49;;;;;;;9.80;5.15;;;;;;;;;;5109925;28;20023;-77
2021/05/07 07:03:14;;;;;;;8.25;5.05;;;;;;;;;;5115277;28;20031;-76
2021/05/07 07:05:40;;;;;;;9.55;5.50;;;;;;;;;;5113159;28;20094;-76
2021/05/07 07:08:06;;;;;;;8.48;5.97;;;;;;;;;;5097467;28;20091;-76
2021/05/07 07:10:31;;;;;;;9.27;5.22;;;;;;;;;;5106489;28;20111;-76
2021/05/07 07:12:57;;;;;;;10.35;5.45;;;;;;;;;;5099664;28;20024;-76
2021/05/07 07:15:23;;;;;;;10.18;6.35;;;;;;;;;;5101806;28;20103;-77
2021/05/07 07:17:48;;;;;;;11.73;5.82;;;;;;;;;;5110253;27;20098;-76
2021/05/07 07:20:14;;;;;;;9.00;5.50;;;;;;;;;;5119343;28;20031;-76
2021/05/07 07:22:40;;;;;;;12.80;6.40;;;;;;;;;;5097198;28;20102;-77
2021/05/07 07:25:06;;;;;;;7.05;5.50;;;;;;;;;;5102927;28;20034;-77
2021/05/07 07:27:31;;;;;;;8.90;4.53;;;;;;;;;;5105336;28;20047;-77
2021/05/07 07:29:57;;;;;;;12.48;5.47;;;;;;;;;;5103661;28;20043;-77
2021/05/07 07:32:23;;;;;;;9.20;5.82;;;;;;;;;;5107517;28;20107;-76
2021/05/07 07:34:49;;;;;;;9.38;5.40;;;;;;;;;;5109486;27;20143;-77
2021/05/07 07:37:14;;;;;;;8.65;5.32;;;;;;;;;;5105956;28;20452;-77
2021/05/07 07:39:41;;;;;;;10.27;6.25;;;;;;;;;;5104805;28;20018;-77
2021/05/07 07:42:07;;;;;;;14.98;9.60;;;;;;;;;;5103656;28;20042;-77
2021/05/07 07:44:32;;;;;;;40.47;24.75;;;;;;;;;;5107893;28;20028;-77
2021/05/07 07:46:58;;;;;;;18.73;10.23;;;;;;;;;;5110261;28;20443;-77
2021/05/07 07:49:24;;;;;;;20.75;11.75;;;;;;;;;;5111762;28;20102;-77
2021/05/07 07:51:49;;;;;;;7.47;4.85;;;;;;;;;;5112789;28;20012;-77
2021/05/07 07:54:15;;;;;;;19.02;10.73;;;;;;;;;;5105438;28;20136;-78
2021/05/07 07:56:41;;;;;;;41.83;20.83;;;;;;;;;;5110119;28;20096;-77
2021/05/07 07:59:06;;;;;;;71.25;36.95;;;;;;;;;;5108729;28;20024;-78
2021/05/07 08:01:32;;;;;;;11.10;6.15;;;;;;;;;;5110802;28;20050;-78
2021/05/07 08:03:59;;;;;;;7.05;4.82;;;;;;;;;;5113078;28;20022;-78
2021/05/07 08:06:25;;;;;;;8.88;5.18;;;;;;;;;;5111426;28;20021;-77
2021/05/07 08:08:50;;;;;;;9.57;5.00;;;;;;;;;;5089660;28;20106;-78
2021/05/07 08:11:16;;;;;;;5.97;3.95;;;;;;;;;;5088986;28;20127;-78
2021/05/07 08:13:42;;;;;;;8.70;5.05;;;;;;;;;;5089044;28;20020;-77
2021/05/07 08:16:08;;;;;;;7.30;4.70;;;;;;;;;;5094109;28;20526;-77
2021/05/07 08:18:33;;;;;;;7.45;5.03;;;;;;;;;;5092076;28;20450;-77
2021/05/07 08:20:59;;;;;;;7.75;4.70;;;;;;;;;;5098668;28;20494;-79
2021/05/07 08:23:24;;;;;;;7.18;4.90;;;;;;;;;;5090516;28;20028;-78
2021/05/07 08:25:50;;;;;;;8.45;4.68;;;;;;;;;;5097009;28;20020;-78
2021/05/07 08:28:16;;;;;;;9.55;4.85;;;;;;;;;;5095544;28;20036;-79
2021/05/07 08:30:41;;;;;;;8.02;5.10;;;;;;;;;;5091750;28;20047;-77
2021/05/07 08:33:07;;;;;;;7.57;4.50;;;;;;;;;;5094125;28;20024;-79
2021/05/07 08:35:33;;;;;;;8.60;4.85;;;;;;;;;;5097476;28;20035;-79
2021/05/07 08:38:00;;;;;;;6.65;4.40;;;;;;;;;;5086976;27;20024;-79
2021/05/07 08:40:25;;;;;;;7.70;4.93;;;;;;;;;;5108110;28;20487;-78
2021/05/07 08:42:51;;;;;;;10.13;6.00;;;;;;;;;;5106088;28;20027;-79
2021/05/07 08:45:17;;;;;;;7.88;4.18;;;;;;;;;;5101130;28;20016;-78
2021/05/07 08:47:43;;;;;;;8.20;4.18;;;;;;;;;;5083146;28;20015;-78
2021/05/07 08:50:09;;;;;;;8.85;4.72;;;;;;;;;;5095201;28;20400;-78
2021/05/07 08:52:35;;;;;;;8.63;5.05;;;;;;;;;;5095668;28;20056;-77
2021/05/07 08:55:02;;;;;;;7.43;4.93;;;;;;;;;;5090037;28;20023;-77
2021/05/07 08:57:27;;;;;;;8.48;5.72;;;;;;;;;;5088883;28;20028;-79
2021/05/07 08:59:53;;;;;;;7.22;4.95;;;;;;;;;;5081542;28;20495;-77
2021/05/07 09:02:32;;;;;;;6.93;4.43;;;;;;;;;;5095163;28;20119;-77
2021/05/07 09:04:58;;;;;;;7.03;4.68;;;;;;;;;;5089435;28;20020;-78
2021/05/07 09:07:25;;;;;;;6.38;4.72;;;;;;;;;;5094966;28;20016;-78
2021/05/07 09:10:03;;;;;;;6.97;3.75;;;;;;;;;;5091346;28;20062;-79
2021/05/07 09:12:35;;;;;;;14.65;4.90;;;;;;;;;;5099988;28;20067;-77
2021/05/07 09:15:01;;;;;;;10.52;4.38;;;;;;;;;;5097231;28;20045;-79
2021/05/07 09:17:27;;;;;;;9.60;5.38;;;;;;;;;;5094896;28;20428;-78
2021/05/07 09:20:07;;;;;;;6.57;5.18;;;;;;;;;;5096278;28;20020;-77
2021/05/07 09:22:32;;;;;;;7.80;4.50;;;;;;;;;;5097864;28;20080;-78
2021/05/07 09:25:18;;;;;;;7.30;3.85;;;;;;;;;;5096980;28;20020;-80
2021/05/07 09:27:44;;;;;;;7.65;4.00;;;;;;;;;;5086280;28;20027;-79
2021/05/07 09:30:18;;;;;;;8.15;5.05;;;;;;;;;;5085561;28;20024;-77
2021/05/07 09:32:48;;;;;;;6.82;4.47;;;;;;;;;;5090700;28;20043;-78
2021/05/07 09:35:14;;;;;;;8.35;4.40;;;;;;;;;;5098325;28;20047;-78
2021/05/07 09:37:40;;;;;;;8.63;4.40;;;;;;;;;;5089507;28;20081;-77
2021/05/07 09:40:13;;;;;;;7.38;4.57;;;;;;;;;;5088466;28;20055;-78
2021/05/07 09:42:39;;;;;;;6.60;4.53;;;;;;;;;;5097811;28;20012;-78
2021/05/07 09:45:23;;;;;;;7.55;4.25;;;;;;;;;;5094588;28;20526;-77
2021/05/07 09:47:49;;;;;;;7.82;4.20;;;;;;;;;;5090082;28;20057;-78
2021/05/07 09:52:33;;;;;;;7.85;4.43;;;;;;;;;;5094846;27;20409;-79
2021/05/07 09:54:59;;;;;;;6.78;4.20;;;;;;;;;;5086329;28;20032;-77
2021/05/07 09:57:25;;;;;;;6.85;4.80;;;;;;;;;;5084365;28;20049;-79
2021/05/07 09:59:50;;;;;;;6.28;4.40;;;;;;;;;;5082844;28;20150;-77
2021/05/07 10:02:16;;;;;;;8.98;5.18;;;;;;;;;;5086542;28;20039;-78
2021/05/07 10:04:42;;;;;;;10.35;4.18;;;;;;;;;;5082764;28;20047;-78
2021/05/07 10:07:08;;;;;;;8.32;3.72;;;;;;;;;;5083263;28;20026;-77
2021/05/07 10:09:35;;;;;;;7.07;4.10;;;;;;;;;;5082141;28;20107;-78
2021/05/07 10:12:04;;;;;;;6.65;3.50;;;;;;;;;;5084008;28;20089;-77
2021/05/07 10:14:33;;;;;;;7.78;4.30;;;;;;;;;;5078301;28;20028;-77
2021/05/07 10:17:09;;;;;;;8.27;4.43;;;;;;;;;;5084143;28;20480;-76
2021/05/07 10:19:45;;;;;;;7.82;4.15;;;;;;;;;;5078020;28;20066;-77
2021/05/07 10:22:12;;;;;;;5.85;3.40;;;;;;;;;;5084100;28;20028;-80
2021/05/07 10:26:56;;;;;;;4.55;3.30;;;;;;;;;;5110314;27;20370;-79
2021/05/07 10:29:26;;;;;;;6.88;3.42;;;;;;;;;;5104296;28;20415;-78
2021/05/07 10:31:53;;;;;;;7.03;3.33;;;;;;;;;;5102690;28;20093;-78
2021/05/07 10:34:19;;;;;;;5.10;3.10;;;;;;;;;;5102639;28;20047;-79
2021/05/07 10:36:46;;;;;;;6.82;3.55;;;;;;;;;;5085234;28;20057;-79
2021/05/07 10:39:19;;;;;;;5.97;3.33;;;;;;;;;;5098019;28;20039;-79
2021/05/07 10:44:04;;;;;;;8.30;4.20;;;;;;;;;;5108857;27;20348;-79
2021/05/07 10:46:29;;;;;;;11.68;4.00;;;;;;;;;;5111253;28;20047;-79
2021/05/07 10:48:56;;;;;;;6.47;3.38;;;;;;;;;;5098727;28;20028;-80
2021/05/07 10:51:23;;;;;;;5.07;3.38;;;;;;;;;;5101825;28;20044;-80
2021/05/07 10:53:49;;;;;;;6.60;4.35;;;;;;;;;;5107173;28;20018;-81
2021/05/07 10:56:22;;;;;;;7.40;3.90;;;;;;;;;;5107817;28;20028;-80
2021/05/07 10:58:49;;;;;;;7.68;4.22;;;;;;;;;;5113066;28;20023;-80
2021/05/07 11:01:24;;;;;;;6.63;4.10;;;;;;;;;;5112204;28;20016;-79
2021/05/07 11:04:09;;;;;;;7.50;4.00;;;;;;;;;;5099083;28;20041;-80
2021/05/07 11:06:36;;;;;;;6.78;3.70;;;;;;;;;;5102501;28;20020;-81
2021/05/07 11:09:20;;;;;;;6.95;3.67;;;;;;;;;;5098332;28;20017;-81
2021/05/07 11:11:46;;;;;;;6.35;3.40;;;;;;;;;;5097520;28;20012;-80
2021/05/07 11:14:12;;;;;;;6.57;3.30;;;;;;;;;;5101119;28;20020;-81
2021/05/07 11:16:41;;;;;;;11.38;3.33;;;;;;;;;;5100757;28;20055;-79
2021/05/07 11:19:07;;;;;;;5.53;3.05;;;;;;;;;;5125326;28;20037;-81
2021/05/07 11:21:33;;;;;;;4.47;2.63;;;;;;;;;;5121552;27;20382;-82
2021/05/07 11:23:59;;;;;;;6.20;3.30;;;;;;;;;;5123131;28;20015;-82
2021/05/07 11:26:35;;;;;;;7.68;3.58;;;;;;;;;;5129309;27;20101;-80
2021/05/07 11:29:01;;;;;;;5.63;3.00;;;;;;;;;;5119872;28;20016;-79
2021/05/07 11:31:27;;;;;;;5.60;2.80;;;;;;;;;;5113650;28;20066;-81
2021/05/07 11:33:53;;;;;;;5.15;2.63;;;;;;;;;;5109288;28;20030;-81
2021/05/07 11:36:19;;;;;;;5.03;2.45;;;;;;;;;;5125665;28;20442;-80
2021/05/07 11:38:44;;;;;;;8.27;4.05;;;;;;;;;;5116051;28;20035;-79
2021/05/07 11:41:26;;;;;;;4.60;2.42;;;;;;;;;;5123009;28;20394;-80
2021/05/07 11:43:52;;;;;;;6.30;2.10;;;;;;;;;;5113559;28;20019;-82
2021/05/07 11:46:18;;;;;;;4.63;1.90;;;;;;;;;;5112630;28;20479;-82
2021/05/07 11:48:45;;;;;;;5.53;2.80;;;;;;;;;;5125400;27;20016;-82
2021/05/07 11:51:11;;;;;;;7.75;2.92;;;;;;;;;;5115268;28;20019;-80
2021/05/07 11:53:37;;;;;;;4.95;2.00;;;;;;;;;;5115366;28;20030;-80
2021/05/07 11:56:03;;;;;;;4.07;1.80;;;;;;;;;;5103936;28;20054;-80
2021/05/07 11:58:39;;;;;;;4.22;1.63;;;;;;;;;;5101563;28;20070;-81
2021/05/07 12:01:05;;;;;;;5.15;2.40;;;;;;;;;;5100979;27;20031;-82
2021/05/07 12:03:44;;;;;;;5.63;3.13;;;;;;;;;;5102678;28;20103;-82
2021/05/07 12:06:20;;;;;;;4.70;2.63;;;;;;;;;;5107302;28;20030;-82
2021/05/07 12:08:49;;;;;;;4.45;2.70;;;;;;;;;;5106472;27;20016;-82
2021/05/07 12:11:16;;;;;;;6.18;2.30;;;;;;;;;;5106763;28;20079;-79
2021/05/07 12:13:42;;;;;;;3.75;2.00;;;;;;;;;;5102878;28;20030;-82
2021/05/07 12:16:09;;;;;;;3.22;1.65;;;;;;;;;;5106211;28;20030;-84
2021/05/07 12:18:37;;;;;;;4.32;2.17;;;;;;;;;;5083768;27;20024;-85
2021/05/07 12:21:03;;;;;;;4.60;2.47;;;;;;;;;;5098880;28;20024;-83
2021/05/07 12:23:40;;;;;;;5.60;2.10;;;;;;;;;;5095939;28;20042;-83
2021/05/07 12:26:06;;;;;;;3.25;2.05;;;;;;;;;;5097644;28;20035;-83
2021/05/07 12:28:32;;;;;;;7.13;2.20;;;;;;;;;;5110028;28;20019;-83
2021/05/07 12:30:58;;;;;;;4.82;2.35;;;;;;;;;;5107595;28;20042;-83
2021/05/07 12:33:25;;;;;;;3.40;2.03;;;;;;;;;;5108936;27;20024;-83
2021/05/07 12:35:52;;;;;;;3.47;2.10;;;;;;;;;;5107057;28;20008;-84
2021/05/07 12:38:34;;;;;;;4.80;1.80;;;;;;;;;;5106344;28;20024;-84
2021/05/07 12:41:02;;;;;;;4.15;1.95;;;;;;;;;;5106193;28;20012;-83
2021/05/07 12:43:32;;;;;;;4.25;2.00;;;;;;;;;;5113804;28;20166;-84
2021/05/07 12:45:58;;;;;;;4.57;2.17;;;;;;;;;;5109642;28;20489;-84
2021/05/07 12:48:23;;;;;;;3.38;2.03;;;;;;;;;;5103586;28;20115;-85
2021/05/07 12:50:50;;;;;;;4.50;2.10;;;;;;;;;;5103051;28;20066;-84
2021/05/07 12:53:17;;;;;;;4.53;2.30;;;;;;;;;;5107321;28;20480;-84
2021/05/07 12:55:43;;;;;;;4.40;2.05;;;;;;;;;;5106123;28;20024;-84
2021/05/07 12:58:08;;;;;;;5.38;2.55;;;;;;;;;;5104712;28;20107;-84
2021/05/07 13:00:34;;;;;;;4.15;1.85;;;;;;;;;;5093158;28;20028;-81
2021/05/07 13:03:00;;;;;;;6.60;2.20;;;;;;;;;;5102170;28;20448;-79
2021/05/07 13:05:26;;;;;;;4.55;2.47;;;;;;;;;;5100920;28;20127;-80
2021/05/07 13:07:52;;;;;;;5.65;2.60;;;;;;;;;;5108160;28;20055;-80
2021/05/07 13:10:18;;;;;;;4.72;2.10;;;;;;;;;;5104090;28;20028;-79
2021/05/07 13:12:43;;;;;;;5.05;2.67;;;;;;;;;;5105156;28;20041;-80
2021/05/07 13:15:09;;;;;;;4.15;2.30;;;;;;;;;;5106245;28;20016;-79
2021/05/07 13:17:35;;;;;;;4.68;1.85;;;;;;;;;;5103903;28;20094;-81
2021/05/07 13:20:01;;;;;;;6.05;2.03;;;;;;;;;;5113963;28;20035;-81
2021/05/07 13:22:26;;;;;;;2.88;1.42;;;;;;;;;;5101982;28;20016;-81
2021/05/07 13:24:54;;;;;;;5.28;2.25;;;;;;;;;;5117187;28;20038;-79
2021/05/07 13:27:20;;;;;;;3.00;1.65;;;;;;;;;;5102584;28;20016;-78
2021/05/07 13:29:45;;;;;;;3.70;1.58;;;;;;;;;;5104846;28;20026;-79
2021/05/07 13:32:12;;;;;;;2.97;1.58;;;;;;;;;;5105517;28;20217;-81
2021/05/07 13:34:38;;;;;;;4.20;1.60;;;;;;;;;;5103476;28;20582;-80
2021/05/07 13:37:04;;;;;;;3.65;1.70;;;;;;;;;;5109570;28;20102;-80
2021/05/07 13:39:30;;;;;;;3.55;1.27;;;;;;;;;;5101613;28;20021;-80
2021/05/07 13:41:55;;;;;;;3.42;1.50;;;;;;;;;;5099848;28;20572;-81
2021/05/07 13:44:21;;;;;;;2.70;1.30;;;;;;;;;;5099013;28;20460;-81
2021/05/07 13:46:47;;;;;;;3.03;1.35;;;;;;;;;;5089712;28;20050;-79
2021/05/07 13:49:12;;;;;;;3.45;1.58;;;;;;;;;;5095294;28;20099;-80
2021/05/07 13:51:38;;;;;;;4.43;1.20;;;;;;;;;;5095336;28;20019;-78
2021/05/07 13:54:04;;;;;;;4.43;1.50;;;;;;;;;;5102028;28;20020;-79
2021/05/07 13:56:30;;;;;;;3.65;1.20;;;;;;;;;;5094903;28;20034;-82
2021/05/07 13:58:55;;;;;;;3.28;1.30;;;;;;;;;;5090818;28;20016;-80
2021/05/07 14:01:21;;;;;;;4.55;1.42;;;;;;;;;;5100115;28;20455;-80
2021/05/07 14:03:47;;;;;;;2.53;1.38;;;;;;;;;;5108427;28;20531;-80
2021/05/07 14:06:13;;;;;;;3.17;1.70;;;;;;;;;;5104638;28;20130;-79
2021/05/07 14:08:38;;;;;;;4.18;1.95;;;;;;;;;;5107466;28;20054;-80
2021/05/07 14:11:04;;;;;;;3.20;1.90;;;;;;;;;;5109169;28;20092;-80
2021/05/07 14:13:29;;;;;;;3.53;2.00;;;;;;;;;;5099250;28;20021;-80
2021/05/07 14:15:55;;;;;;;5.10;1.85;;;;;;;;;;5105557;28;20050;-79
2021/05/07 14:18:21;;;;;;;3.30;1.30;;;;;;;;;;5102088;28;20051;-80
2021/05/07 14:20:47;;;;;;;2.70;1.27;;;;;;;;;;5107261;28;20015;-80
2021/05/07 14:23:14;;;;;;;3.33;1.40;;;;;;;;;;5102481;28;20115;-80
2021/05/07 14:25:39;;;;;;;3.80;1.80;;;;;;;;;;5106748;28;20521;-78
2021/05/07 14:28:07;;;;;;;4.97;1.40;;;;;;;;;;5105727;28;20027;-79
2021/05/07 14:30:34;;;;;;;3.50;1.45;;;;;;;;;;5099009;28;20090;-80
2021/05/07 14:32:59;;;;;;;3.95;1.45;;;;;;;;;;5106503;28;20464;-80
2021/05/07 14:35:25;;;;;;;2.90;1.35;;;;;;;;;;5101785;28;20111;-80
2021/05/07 14:37:51;;;;;;;3.58;1.77;;;;;;;;;;5106968;28;20095;-80
2021/05/07 14:40:16;;;;;;;4.13;2.35;;;;;;;;;;5105402;28;20047;-79
2021/05/07 14:42:42;;;;;;;7.07;2.72;;;;;;;;;;5107063;28;20032;-80
2021/05/07 14:45:09;;;;;;;5.25;2.75;;;;;;;;;;5104587;28;20115;-78
2021/05/07 14:47:35;;;;;;;3.53;1.90;;;;;;;;;;5097101;28;20028;-80
2021/05/07 14:50:00;;;;;;;4.10;2.05;;;;;;;;;;5106594;28;20023;-80
2021/05/07 14:52:26;;;;;;;3.03;1.10;;;;;;;;;;5099930;28;20055;-79
2021/05/07 14:54:52;;;;;;;3.83;2.00;;;;;;;;;;5106881;28;20026;-80
2021/05/07 14:57:17;;;;;;;3.40;1.30;;;;;;;;;;5110679;28;20119;-78
2021/05/07 14:59:43;;;;;;;4.90;1.38;;;;;;;;;;5104804;28;20016;-80
2021/05/07 15:02:09;;;;;;;4.03;2.40;;;;;;;;;;5108569;28;20038;-78
2021/05/07 15:04:34;;;;;;;3.95;1.40;;;;;;;;;;5107474;28;20026;-79
2021/05/07 15:07:07;;;;;;;3.17;1.73;;;;;;;;;;5087172;28;20059;-80
2021/05/07 15:09:33;;;;;;;3.83;1.73;;;;;;;;;;5090370;28;20020;-82
2021/05/07 15:11:58;;;;;;;6.20;2.60;;;;;;;;;;5085330;28;20026;-82
2021/05/07 15:14:24;;;;;;;5.32;3.80;;;;;;;;;;5086206;28;20028;-81
2021/05/07 15:16:50;;;;;;;3.45;1.60;;;;;;;;;;5094779;28;20448;-81
2021/05/07 15:19:16;;;;;;;3.83;1.77;;;;;;;;;;5100083;28;20571;-81
2021/05/07 15:21:42;;;;;;;2.80;1.42;;;;;;;;;;5105714;28;20023;-82
2021/05/07 15:24:07;;;;;;;1.77;0.88;;;;;;;;;;5108801;28;20022;-81
2021/05/07 15:26:33;;;;;;;2.38;1.38;;;;;;;;;;5105843;28;20056;-80
2021/05/07 15:29:01;;;;;;;3.67;1.30;;;;;;;;;;5098710;28;20087;-82
2021/05/07 15:31:26;;;;;;;2.40;1.35;;;;;;;;;;5112029;28;20028;-82
2021/05/07 15:33:52;;;;;;;3.33;1.83;;;;;;;;;;5104813;28;20030;-81
2021/05/07 15:36:19;;;;;;;2.45;1.17;;;;;;;;;;5112788;28;20062;-81
2021/05/07 15:38:45;;;;;;;2.40;1.20;;;;;;;;;;5099810;28;20019;-81
2021/05/07 15:41:11;;;;;;;3.92;1.55;;;;;;;;;;5110484;28;20059;-81
2021/05/07 15:43:36;;;;;;;2.92;1.23;;;;;;;;;;5110457;28;20028;-81
2021/05/07 15:46:02;;;;;;;2.78;1.20;;;;;;;;;;5103226;28;20053;-81
2021/05/07 15:48:27;;;;;;;2.40;1.20;;;;;;;;;;5110914;28;20233;-80
2021/05/07 15:50:53;;;;;;;2.75;1.38;;;;;;;;;;5105441;28;20091;-81
2021/05/07 15:53:19;;;;;;;5.30;2.28;;;;;;;;;;5113105;28;20034;-81
2021/05/07 15:55:44;;;;;;;3.45;1.48;;;;;;;;;;5104944;28;20058;-81
2021/05/07 15:58:10;;;;;;;4.82;1.58;;;;;;;;;;5102490;28;20024;-80
2021/05/07 16:00:36;;;;;;;2.83;1.20;;;;;;;;;;5101787;28;20030;-80
2021/05/07 16:03:01;;;;;;;2.10;1.20;;;;;;;;;;5102267;28;20483;-81
2021/05/07 16:05:27;;;;;;;2.60;1.50;;;;;;;;;;5105468;28;20028;-81
2021/05/07 16:07:53;;;;;;;2.55;1.20;;;;;;;;;;5112548;28;20016;-81
2021/05/07 16:10:18;;;;;;;5.15;1.83;;;;;;;;;;5108219;28;20114;-80
2021/05/07 16:12:45;;;;;;;2.28;1.20;;;;;;;;;;5093010;28;20076;-79
2021/05/07 16:15:11;;;;;;;5.55;2.00;;;;;;;;;;5110703;28;20016;-79
2021/05/07 16:17:37;;;;;;;3.30;1.50;;;;;;;;;;5102487;28;20024;-80
2021/05/07 16:20:04;;;;;;;3.90;1.65;;;;;;;;;;5109634;28;20519;-81
2021/05/07 16:22:29;;;;;;;3.85;1.83;;;;;;;;;;5108131;28;20054;-79
2021/05/07 16:24:55;;;;;;;4.55;1.73;;;;;;;;;;5110612;28;20386;-79
2021/05/07 16:27:21;;;;;;;3.83;1.70;;;;;;;;;;5100799;28;20020;-80
2021/05/07 16:29:46;;;;;;;5.47;2.63;;;;;;;;;;5092755;28;20054;-81
2021/05/07 16:32:16;;;;;;;4.20;1.92;;;;;;;;;;5109114;28;20043;-81
2021/05/07 16:34:42;;;;;;;10.32;5.72;;;;;;;;;;5101051;28;20013;-78
2021/05/07 16:37:07;;;;;;;7.88;4.22;;;;;;;;;;5092115;28;20445;-80
2021/05/07 16:39:33;;;;;;;5.55;2.72;;;;;;;;;;5096027;28;20016;-79
2021/05/07 16:41:59;;;;;;;4.32;2.20;;;;;;;;;;5103975;28;20038;-80
2021/05/07 16:44:24;;;;;;;3.28;1.77;;;;;;;;;;5095321;28;20020;-80
2021/05/07 16:46:50;;;;;;;3.70;1.80;;;;;;;;;;5103766;28;20025;-80
2021/05/07 16:49:16;;;;;;;3.70;1.95;;;;;;;;;;5104193;28;20468;-80
2021/05/07 16:51:41;;;;;;;2.72;1.58;;;;;;;;;;5104291;28;20028;-79
2021/05/07 16:59:24;;;;;;;4.50;2.30;;;;;;;;;;5084112;28;20404;-79
2021/05/07 17:01:49;;;;;;;4.40;1.50;;;;;;;;;;5079745;28;20138;-80
2021/05/07 17:04:15;;;;;;;4.25;2.05;;;;;;;;;;5074386;28;20024;-80
2021/05/07 17:06:41;;;;;;;4.72;2.03;;;;;;;;;;5074815;28;20031;-80
2021/05/07 17:09:06;;;;;;;3.65;1.73;;;;;;;;;;5076540;28;20021;-80
2021/05/07 17:11:32;;;;;;;3.35;1.30;;;;;;;;;;5082779;28;20036;-79
2021/05/07 17:13:59;;;;;;;4.43;2.00;;;;;;;;;;5081182;28;20035;-80
2021/05/07 17:16:25;;;;;;;5.90;2.45;;;;;;;;;;5075153;28;20024;-77
2021/05/07 17:18:51;;;;;;;5.22;2.72;;;;;;;;;;5081242;28;20077;-77
2021/05/07 17:21:17;;;;;;;4.72;2.60;;;;;;;;;;5059739;28;19921;-76
2021/05/07 17:23:42;;;;;;;5.88;2.78;;;;;;;;;;5071905;28;20024;-76
2021/05/07 17:26:08;;;;;;;5.25;2.30;;;;;;;;;;5069125;28;20028;-78
2021/05/07 17:28:33;;;;;;;6.05;1.88;;;;;;;;;;5081086;28;20024;-78
2021/05/07 17:30:59;;;;;;;4.18;1.77;;;;;;;;;;5077893;28;20108;-80
2021/05/07 17:33:25;;;;;;;3.53;1.95;;;;;;;;;;5072994;28;20040;-79
2021/05/07 17:35:50;;;;;;;2.53;1.45;;;;;;;;;;5066550;28;20016;-82
2021/05/07 17:38:16;;;;;;;4.45;2.10;;;;;;;;;;5058686;28;20107;-81
2021/05/07 17:40:42;;;;;;;6.78;3.00;;;;;;;;;;5064776;28;20070;-80
2021/05/07 17:43:08;;;;;;;6.35;3.22;;;;;;;;;;5066175;28;20032;-81
2021/05/07 17:45:35;;;;;;;4.20;1.80;;;;;;;;;;5085681;28;20029;-82
2021/05/07 17:48:00;;;;;;;8.25;4.57;;;;;;;;;;5064834;28;20039;-80
2021/05/07 17:50:26;;;;;;;5.93;4.13;;;;;;;;;;5063103;28;20450;-81
2021/05/07 17:52:52;;;;;;;6.10;2.72;;;;;;;;;;5053127;28;20044;-83
2021/05/07 17:55:17;;;;;;;7.38;4.13;;;;;;;;;;5066600;28;20035;-82
2021/05/07 17:57:43;;;;;;;9.57;4.95;;;;;;;;;;5049264;28;20384;-81
2021/05/07 18:00:10;;;;;;;6.68;4.18;;;;;;;;;;5064806;28;20028;-82
2021/05/07 18:02:36;;;;;;;7.65;3.70;;;;;;;;;;5054109;28;20033;-81
2021/05/07 18:05:02;;;;;;;8.45;5.55;;;;;;;;;;5067203;28;20104;-81
2021/05/07 18:07:28;;;;;;;10.35;6.55;;;;;;;;;;5056455;28;20041;-80
2021/05/07 18:09:54;;;;;;;8.75;5.40;;;;;;;;;;5054051;28;20107;-79
2021/05/07 18:12:21;;;;;;;18.77;12.68;;;;;;;;;;5055462;28;20109;-79
2021/05/07 18:14:47;;;;;;;24.40;16.75;;;;;;;;;;5049807;28;20027;-81
2021/05/07 18:17:14;;;;;;;29.40;20.13;;;;;;;;;;5050746;28;20694;-82
2021/05/07 18:19:39;;;;;;;39.67;27.55;;;;;;;;;;5032088;28;20028;-80
2021/05/07 18:22:05;;;;;;;24.83;16.02;;;;;;;;;;5053331;28;20029;-82
2021/05/07 18:24:31;;;;;;;8.73;5.85;;;;;;;;;;5054187;28;20021;-82
2021/05/07 18:26:56;;;;;;;5.53;2.75;;;;;;;;;;5052009;28;20389;-79
2021/05/07 18:29:22;;;;;;;3.10;1.40;;;;;;;;;;5048798;28;20029;-79
2021/05/07 18:31:53;;;;;;;2.80;1.38;;;;;;;;;;5048606;28;20500;-81
2021/05/07 18:34:19;;;;;;;2.60;1.23;;;;;;;;;;5047170;28;20025;-80
2021/05/07 18:36:44;;;;;;;3.63;1.58;;;;;;;;;;5049616;28;20400;-78
2021/05/07 18:39:10;;;;;;;2.42;1.10;;;;;;;;;;5040048;28;20108;-81
2021/05/07 18:41:36;;;;;;;3.40;1.08;;;;;;;;;;5037910;28;20025;-81
2021/05/07 18:44:02;;;;;;;2.53;1.50;;;;;;;;;;5057655;28;20037;-78
2021/05/07 18:46:27;;;;;;;4.72;1.42;;;;;;;;;;5054777;28;20024;-79
2021/05/07 18:48:56;;;;;;;2.65;1.23;;;;;;;;;;5039590;28;20024;-80
2021/05/07 18:51:22;;;;;;;5.32;3.08;;;;;;;;;;5042724;28;20020;-79
2021/05/07 18:54:03;;;;;;;2.80;1.40;;;;;;;;;;5051883;28;20040;-79
2021/05/07 18:56:45;;;;;;;2.47;1.40;;;;;;;;;;5027057;28;20032;-80
2021/05/07 18:59:10;;;;;;;3.58;1.60;;;;;;;;;;5032873;28;20051;-78
2021/05/07 19:01:38;;;;;;;6.88;1.45;;;;;;;;;;5035030;28;20028;-79
2021/05/07 19:04:03;;;;;;;2.10;0.93;;;;;;;;;;5030139;28;20025;-80
2021/05/07 19:06:30;;;;;;;6.60;2.92;;;;;;;;;;5032070;28;20016;-78
2021/05/07 19:08:55;;;;;;;6.47;3.60;;;;;;;;;;5035742;28;20013;-80
2021/05/07 19:11:21;;;;;;;7.90;3.75;;;;;;;;;;5044576;28;20070;-78
2021/05/07 19:13:47;;;;;;;3.00;1.70;;;;;;;;;;5054906;28;20125;-79
2021/05/07 19:16:13;;;;;;;3.70;1.60;;;;;;;;;;5048582;28;20025;-80
2021/05/07 19:18:39;;;;;;;4.38;1.65;;;;;;;;;;5051978;28;20113;-79
2021/05/07 19:21:05;;;;;;;4.57;2.97;;;;;;;;;;5054929;28;20104;-79
2021/05/07 19:23:31;;;;;;;8.68;5.45;;;;;;;;;;5030834;28;20049;-79
2021/05/07 19:25:56;;;;;;;12.60;8.60;;;;;;;;;;5045583;28;20036;-79
2021/05/07 19:28:22;;;;;;;8.65;5.47;;;;;;;;;;5048155;28;20035;-79
2021/05/07 19:30:51;;;;;;;5.70;3.15;;;;;;;;;;5053167;28;20473;-78
2021/05/07 19:33:17;;;;;;;3.47;1.75;;;;;;;;;;5048804;28;20439;-79
2021/05/07 19:35:43;;;;;;;2.72;1.30;;;;;;;;;;5054195;28;20017;-79
2021/05/07 19:38:09;;;;;;;8.15;4.85;;;;;;;;;;5051093;28;20566;-79
2021/05/07 19:40:34;;;;;;;9.63;5.55;;;;;;;;;;5051640;28;20135;-80
2021/05/07 19:43:00;;;;;;;15.75;9.07;;;;;;;;;;5054262;28;20017;-79
2021/05/07 19:45:26;;;;;;;28.73;15.98;;;;;;;;;;5050071;28;20029;-79
2021/05/07 19:47:51;;;;;;;28.63;18.63;;;;;;;;;;5051209;28;20031;-79
2021/05/07 19:50:17;;;;;;;19.67;13.23;;;;;;;;;;5048370;28;20045;-78